Waterman, Pennsylvania
Current Conditions -  °F | °C
As of 6:55 PM on Sunday 23 Nov 2014 (Local Time) from KIDI Reporting Station
Clear Clear  
Wind Chill: 13°   Ceiling: Unl
Heat Index: 13°   Visibility: 10mi
Dew Point:   Wind: 12mph
Humidity: 47%   Direction: 160°SSE
Pressure: 29.87"   Gusts: 18mph
Location:  40.5413°N, 79.1838°W
Report Text: KIDI 232355Z AUTO 16010G16KT 130V190 10SM CLR 13/02 A2987 RMK A01
Loading
Personal Weather Stations






























Interactive Weather Map New forecast layout! Learn more

10-Day Weather Forecast

Advertisements
Track Severe Weather on mobile